Time;durP1;ratioP1;P1;durP2;ratioP2;P2;SDS_P1;SDS_P2;PMS_P1;PMS_P2;Temp;Humidity;BMP_temperature;BMP_pressure;BME280_temperature;BME280_humidity;BME280_pressure;Samples;Min_cycle;Max_cycle;Signal;HPM_P1;HPM_P2
2023/05/16 00:01:11;;;;;;;26.95;14.02;;;;;;;13.92;nan;-24205.44;5029797;28;20167;-71
2023/05/16 00:03:37;;;;;;;28.67;14.50;;;;;;;13.73;nan;-24200.25;5034976;28;20175;-70
2023/05/16 00:06:04;;;;;;;34.20;14.50;;;;;;;14.02;nan;-24208.38;5032782;28;20671;-72
2023/05/16 00:08:29;;;;;;;27.77;13.55;;;;;;;13.87;nan;-24204.16;5031678;28;20192;-71
2023/05/16 00:10:55;;;;;;;25.77;13.38;;;;;;;13.87;nan;-24204.03;5031518;28;20696;-69
2023/05/16 00:13:23;;;;;;;31.52;15.57;;;;;;;13.86;nan;-24203.88;5031842;28;20581;-69
2023/05/16 00:15:50;;;;;;;32.42;14.50;;;;;;;13.99;nan;-24207.41;5030273;28;20175;-68
2023/05/16 00:18:16;;;;;;;34.03;15.18;;;;;;;13.67;nan;-24198.69;5029378;28;20179;-71
2023/05/16 00:20:42;;;;;;;30.20;14.43;;;;;;;13.85;nan;-24203.47;5032142;28;20252;-69
2023/05/16 00:23:08;;;;;;;29.65;14.07;;;;;;;13.85;nan;-24203.59;5031727;28;20183;-69
2023/05/16 00:25:33;;;;;;;32.50;15.30;;;;;;;13.85;nan;-24203.59;5031734;28;20206;-68
2023/05/16 00:27:58;;;;;;;29.27;14.32;;;;;;;13.61;nan;-24196.88;5031538;28;20803;-69
2023/05/16 00:30:24;;;;;;;33.97;15.95;;;;;;;13.60;nan;-24196.59;5031380;28;20561;-72
2023/05/16 00:32:49;;;;;;;31.10;15.48;;;;;;;13.68;nan;-24198.97;5031333;28;20167;-69
2023/05/16 00:35:15;;;;;;;26.10;13.75;;;;;;;13.27;nan;-24187.59;5031724;28;20638;-70
2023/05/16 00:37:40;;;;;;;28.63;14.48;;;;;;;13.60;nan;-24196.72;5029988;28;20175;-70
2023/05/16 00:40:06;;;;;;;33.17;14.77;;;;;;;13.42;nan;-24191.66;5031632;28;20531;-68
2023/05/16 00:42:32;;;;;;;33.60;16.10;;;;;;;13.69;nan;-24199.13;5032993;28;20250;-71
2023/05/16 00:44:58;;;;;;;29.67;14.65;;;;;;;13.76;nan;-24201.09;5033776;28;20222;-68
2023/05/16 00:47:23;;;;;;;32.28;15.18;;;;;;;13.47;nan;-24192.94;5033137;28;20240;-71
2023/05/16 00:49:49;;;;;;;34.90;16.02;;;;;;;13.66;nan;-24198.28;5034619;28;20770;-70
2023/05/16 00:52:14;;;;;;;31.98;15.23;;;;;;;13.71;nan;-24199.69;5034388;28;20270;-71
2023/05/16 00:54:40;;;;;;;34.05;15.27;;;;;;;13.68;nan;-24198.84;5033868;28;20669;-70
2023/05/16 00:57:06;;;;;;;34.47;15.20;;;;;;;13.54;nan;-24194.91;5034623;28;20490;-71
2023/05/16 00:59:32;;;;;;;34.45;14.27;;;;;;;13.31;nan;-24188.44;5034204;28;20175;-69
2023/05/16 01:01:58;;;;;;;37.45;15.95;;;;;;;13.65;nan;-24198.00;5034264;28;20171;-69
2023/05/16 01:04:24;;;;;;;33.08;16.65;;;;;;;13.38;nan;-24190.56;5034389;28;20210;-70
2023/05/16 01:06:50;;;;;;;33.65;15.68;;;;;;;13.32;nan;-24188.72;5037540;28;20239;-68
2023/05/16 01:09:16;;;;;;;32.35;14.88;;;;;;;13.60;nan;-24196.72;5034303;28;20230;-71
2023/05/16 01:11:59;;;;;;;31.35;15.88;;;;;;;13.61;nan;-24196.88;5034179;28;20229;-72
2023/05/16 01:14:55;;;;;;;36.05;16.05;;;;;;;13.41;nan;-24191.38;5033606;28;20160;-71
2023/05/16 01:17:45;;;;;;;30.20;14.98;;;;;;;13.58;nan;-24196.16;5033864;28;20348;-72
2023/05/16 01:20:21;;;;;;;30.98;15.15;;;;;;;13.26;nan;-24187.31;5034421;28;20174;-71
2023/05/16 01:23:10;;;;;;;33.63;15.82;;;;;;;13.52;nan;-24194.34;5034004;28;20193;-71
2023/05/16 01:25:55;;;;;;;27.92;14.55;;;;;;;13.19;nan;-24185.34;5033005;28;20198;-71
2023/05/16 01:28:21;;;;;;;31.15;14.98;;;;;;;13.37;nan;-24190.13;5034425;28;20199;-70
2023/05/16 01:30:47;;;;;;;30.48;15.00;;;;;;;13.34;nan;-24189.28;5033981;28;20207;-68
2023/05/16 01:33:12;;;;;;;33.13;16.20;;;;;;;13.38;nan;-24190.41;5033564;28;20202;-70
2023/05/16 01:36:01;;;;;;;34.35;15.75;;;;;;;13.42;nan;-24191.53;5033054;28;20261;-70
2023/05/16 01:38:38;;;;;;;33.15;16.15;;;;;;;13.30;nan;-24188.31;5033035;28;20593;-70
2023/05/16 01:41:12;;;;;;;34.42;17.17;;;;;;;13.41;nan;-24191.38;5033879;28;20171;-70
2023/05/16 01:43:50;;;;;;;44.83;16.58;;;;;;;13.24;nan;-24186.63;5033357;28;20237;-70
2023/05/16 01:46:22;;;;;;;32.83;16.10;;;;;;;13.34;nan;-24189.28;5033872;28;20194;-68
2023/05/16 01:48:53;;;;;;;33.95;16.20;;;;;;;13.25;nan;-24187.03;5033867;28;20209;-68
2023/05/16 01:51:26;;;;;;;34.83;16.50;;;;;;;13.18;nan;-24184.94;5033835;28;20175;-68
2023/05/16 01:53:57;;;;;;;33.20;15.60;;;;;;;13.30;nan;-24188.16;5033078;28;20653;-71
2023/05/16 01:56:25;;;;;;;35.17;15.98;;;;;;;13.19;nan;-24185.34;5033647;28;20171;-71
2023/05/16 01:58:53;;;;;;;33.70;16.42;;;;;;;13.26;nan;-24187.31;5034111;28;20201;-70
2023/05/16 02:01:18;;;;;;;36.33;15.60;;;;;;;13.28;nan;-24187.88;5033972;28;20156;-70
2023/05/16 02:03:43;;;;;;;37.15;15.57;;;;;;;13.43;nan;-24191.94;5033690;28;20171;-70
2023/05/16 02:06:09;;;;;;;37.72;16.33;;;;;;;13.19;nan;-24185.34;5033598;28;20531;-70
2023/05/16 02:08:35;;;;;;;34.47;16.20;;;;;;;12.98;nan;-24179.44;5033327;28;20207;-71
2023/05/16 02:11:00;;;;;;;37.55;17.23;;;;;;;13.33;nan;-24189.00;5038131;28;20171;-69
2023/05/16 02:13:25;;;;;;;34.92;16.85;;;;;;;13.25;nan;-24186.91;5032104;28;20185;-69
2023/05/16 02:15:51;;;;;;;31.90;15.70;;;;;;;13.12;nan;-24183.25;5033356;28;20198;-71
2023/05/16 02:18:17;;;;;;;30.83;15.93;;;;;;;13.25;nan;-24186.91;5033561;28;20179;-70
2023/05/16 02:20:43;;;;;;;37.15;16.15;;;;;;;12.88;nan;-24176.50;5033462;28;20529;-69
2023/05/16 02:23:16;;;;;;;34.33;16.52;;;;;;;12.94;nan;-24178.31;5031932;28;20186;-71
2023/05/16 02:25:59;;;;;;;30.48;15.43;;;;;;;13.20;nan;-24185.63;5031873;28;20214;-71
2023/05/16 02:28:25;;;;;;;39.00;16.15;;;;;;;12.88;nan;-24176.50;5027614;28;20218;-69
2023/05/16 02:30:57;;;;;;;33.08;17.00;;;;;;;13.10;nan;-24182.81;5033181;28;20250;-68
2023/05/16 02:33:27;;;;;;;40.10;16.13;;;;;;;13.30;nan;-24188.31;5033146;28;20185;-70
2023/05/16 02:35:53;;;;;;;36.33;15.73;;;;;;;13.35;nan;-24189.56;5031505;28;20202;-70
2023/05/16 02:38:20;;;;;;;32.40;15.40;;;;;;;13.22;nan;-24186.06;5033069;28;20207;-70
2023/05/16 02:40:48;;;;;;;30.08;15.93;;;;;;;13.34;nan;-24189.28;5033014;28;20570;-71
2023/05/16 02:43:14;;;;;;;34.17;15.43;;;;;;;13.29;nan;-24188.03;5031905;28;20286;-70
2023/05/16 02:45:39;;;;;;;31.55;16.23;;;;;;;13.36;nan;-24189.84;5032528;28;20184;-70
2023/05/16 02:48:05;;;;;;;35.58;15.95;;;;;;;13.26;nan;-24187.31;5030977;28;20195;-69
2023/05/16 02:50:32;;;;;;;31.42;15.05;;;;;;;13.56;nan;-24195.47;5032933;28;20183;-69
2023/05/16 02:52:58;;;;;;;36.90;16.08;;;;;;;13.40;nan;-24191.13;5032699;28;20223;-71
2023/05/16 02:55:24;;;;;;;34.65;15.80;;;;;;;13.32;nan;-24188.72;5032435;28;20210;-71
2023/05/16 02:57:50;;;;;;;38.88;15.98;;;;;;;13.14;nan;-24183.81;5032386;28;20168;-71
2023/05/16 03:00:16;;;;;;;34.97;15.55;;;;;;;12.98;nan;-24179.44;5031344;28;20286;-68
2023/05/16 03:02:42;;;;;;;29.45;14.57;;;;;;;12.93;nan;-24178.03;5032244;28;20630;-69
2023/05/16 03:05:08;;;;;;;31.17;14.32;;;;;;;13.09;nan;-24182.53;5032510;28;20175;-72
2023/05/16 03:07:34;;;;;;;30.95;15.68;;;;;;;12.85;nan;-24175.78;5032427;28;20171;-72
2023/05/16 03:09:59;;;;;;;34.65;15.68;;;;;;;12.69;nan;-24171.44;5032338;28;20540;-68
2023/05/16 03:12:25;;;;;;;30.45;14.57;;;;;;;13.11;nan;-24182.97;5032573;28;20171;-68
2023/05/16 03:14:51;;;;;;;34.20;14.48;;;;;;;12.78;nan;-24173.81;5037980;28;20179;-70
2023/05/16 03:17:16;;;;;;;33.95;14.95;;;;;;;12.69;nan;-24171.28;5031551;28;20672;-72
2023/05/16 03:19:41;;;;;;;27.20;13.15;;;;;;;12.74;nan;-24172.84;5031518;28;20194;-71
2023/05/16 03:22:07;;;;;;;32.25;13.98;;;;;;;13.00;nan;-24180.00;5032340;28;20171;-69
2023/05/16 03:24:32;;;;;;;29.67;15.07;;;;;;;12.88;nan;-24176.50;5031037;28;20175;-69
2023/05/16 03:26:58;;;;;;;35.85;15.10;;;;;;;12.78;nan;-24173.97;5031956;28;20646;-70
2023/05/16 03:29:25;;;;;;;29.95;14.98;;;;;;;12.99;nan;-24179.72;5031998;28;20199;-68
2023/05/16 03:31:51;;;;;;;36.15;14.82;;;;;;;12.46;nan;-24164.81;5030419;28;20277;-69
2023/05/16 03:34:16;;;;;;;29.67;13.77;;;;;;;12.53;nan;-24166.94;5031751;28;20194;-69
2023/05/16 03:36:42;;;;;;;28.98;12.60;;;;;;;13.04;nan;-24181.13;5032368;28;20202;-70
2023/05/16 03:39:07;;;;;;;27.90;12.82;;;;;;;12.71;nan;-24172.00;5031027;28;20183;-71
2023/05/16 03:41:33;;;;;;;28.42;13.82;;;;;;;13.08;nan;-24182.25;5031821;28;20171;-69
2023/05/16 03:43:59;;;;;;;29.50;13.82;;;;;;;12.70;nan;-24171.56;5031654;28;20229;-70
2023/05/16 03:46:25;;;;;;;31.10;13.63;;;;;;;12.78;nan;-24173.97;5031813;28;20182;-71
2023/05/16 03:48:50;;;;;;;26.73;13.55;;;;;;;12.97;nan;-24179.03;5031997;28;20257;-69
2023/05/16 03:51:16;;;;;;;29.55;14.73;;;;;;;13.22;nan;-24186.06;5030866;28;20658;-70
2023/05/16 03:53:41;;;;;;;34.70;15.30;;;;;;;13.23;nan;-24186.34;5031361;28;20258;-70
2023/05/16 03:56:07;;;;;;;31.85;15.23;;;;;;;13.14;nan;-24183.81;5030196;28;20286;-70
2023/05/16 03:58:32;;;;;;;28.38;13.55;;;;;;;13.40;nan;-24191.13;5031283;28;20198;-67
2023/05/16 04:00:58;;;;;;;30.75;15.05;;;;;;;13.22;nan;-24186.19;5038817;28;20257;-68
2023/05/16 04:03:27;;;;;;;38.17;16.45;;;;;;;13.33;nan;-24189.16;5037862;28;20556;-68
2023/05/16 04:05:54;;;;;;;34.90;15.57;;;;;;;13.54;nan;-24195.03;5031345;28;20171;-69
2023/05/16 04:08:20;;;;;;;35.05;16.55;;;;;;;13.56;nan;-24195.59;5034503;28;20323;-69
2023/05/16 04:10:45;;;;;;;29.65;15.15;;;;;;;13.73;nan;-24200.25;5051349;28;20167;-70
2023/05/16 04:13:10;;;;;;;35.65;14.90;;;;;;;13.77;nan;-24201.38;5051248;28;20236;-69
2023/05/16 04:15:36;;;;;;;35.90;15.52;;;;;;;13.68;nan;-24198.97;5048962;28;20255;-71
2023/05/16 04:18:02;;;;;;;38.08;16.13;;;;;;;14.03;nan;-24208.66;5050064;28;20235;-69
2023/05/16 04:20:27;;;;;;;32.58;15.50;;;;;;;14.11;nan;-24210.75;5036414;28;20587;-70
2023/05/16 04:22:53;;;;;;;37.65;16.95;;;;;;;14.43;nan;-24219.59;5044249;28;20213;-71
2023/05/16 04:25:18;;;;;;;32.13;15.48;;;;;;;14.58;nan;-24223.81;5040568;28;20179;-70
2023/05/16 04:27:44;;;;;;;36.20;17.20;;;;;;;14.75;nan;-24228.56;5041647;28;20171;-69
2023/05/16 04:30:10;;;;;;;36.13;16.48;;;;;;;15.17;nan;-24240.22;5044297;28;20276;-70
2023/05/16 04:32:36;;;;;;;36.17;16.13;;;;;;;15.11;nan;-23915.53;5037161;28;20183;-71
2023/05/16 04:35:02;;;;;;;37.17;17.05;;;;;;;15.39;nan;-23281.06;5045579;28;20180;-70
2023/05/16 04:37:27;;;;;;;38.50;16.65;;;;;;;15.58;nan;-22643.31;5043585;28;20177;-67
2023/05/16 04:39:53;;;;;;;37.10;16.42;;;;;;;16.11;nan;-22013.19;5042680;28;20187;-70
2023/05/16 04:42:19;;;;;;;36.13;16.48;;;;;;;16.10;nan;-21369.50;5043003;28;20229;-68
2023/05/16 04:44:46;;;;;;;33.67;14.38;;;;;;;16.43;nan;-20411.28;5053003;28;20175;-71
2023/05/16 04:47:12;;;;;;;38.80;18.58;;;;;;;16.69;nan;-19128.06;5043947;28;20206;-70
2023/05/16 04:49:37;;;;;;;42.10;17.95;;;;;;;16.67;nan;-19449.81;5042291;28;20293;-70
2023/05/16 04:52:04;;;;;;;41.53;19.45;;;;;;;16.55;nan;-19769.56;5039970;28;20186;-69
2023/05/16 04:54:30;;;;;;;40.58;17.42;;;;;;;16.55;nan;-19769.66;5042673;28;20628;-71
2023/05/16 04:56:56;;;;;;;38.08;16.75;;;;;;;16.63;nan;-19449.13;5032827;28;20183;-72
2023/05/16 04:59:21;;;;;;;36.85;17.40;;;;;;;16.49;nan;-19124.03;5033608;28;20183;-68
2023/05/16 05:01:47;;;;;;;30.10;15.80;;;;;;;16.78;nan;-18485.09;5033904;28;20254;-69
2023/05/16 05:04:13;;;;;;;36.30;16.65;;;;;;;16.97;nan;-18488.44;5033985;28;20321;-71
2023/05/16 05:06:38;;;;;;;36.30;15.77;;;;;;;17.53;nan;-15269.31;5034052;28;20183;-72
2023/05/16 05:09:04;;;;;;;33.97;16.00;;;;;;;17.57;nan;-11390.09;5033915;28;20294;-71
2023/05/16 05:11:30;;;;;;;32.15;14.88;;;;;;;17.36;nan;-12358.72;5032397;28;20217;-69
2023/05/16 05:13:56;;;;;;;36.35;16.08;;;;;;;17.38;nan;-12035.56;5033409;28;20172;-68
2023/05/16 05:16:21;;;;;;;34.33;15.93;;;;;;;17.14;nan;-13972.44;5032497;28;20610;-70
2023/05/16 05:18:47;;;;;;;29.70;15.73;;;;;;;16.85;nan;-15583.19;5033884;28;20168;-70
2023/05/16 05:21:13;;;;;;;34.45;15.32;;;;;;;16.62;nan;-16225.19;5037361;28;20544;-71
2023/05/16 05:23:38;;;;;;;34.10;16.25;;;;;;;16.77;nan;-16227.34;5033654;28;20179;-72
2023/05/16 05:26:04;;;;;;;34.92;16.40;;;;;;;16.88;nan;-17196.84;5038834;28;20331;-72
2023/05/16 05:28:29;;;;;;;36.38;15.40;;;;;;;16.86;nan;-16873.84;5051912;28;20217;-70
2023/05/16 05:30:55;;;;;;;35.83;16.13;;;;;;;16.95;nan;-16875.38;5052119;28;20236;-71
2023/05/16 05:33:25;;;;;;;38.30;16.92;;;;;;;17.14;nan;-17201.03;5033087;28;20167;-72
2023/05/16 05:35:52;;;;;;;31.45;15.45;;;;;;;17.16;nan;-16878.69;5033433;28;20646;-71
2023/05/16 05:38:19;;;;;;;37.38;17.20;;;;;;;17.22;nan;-16233.94;5033337;28;20607;-70
2023/05/16 05:40:44;;;;;;;37.05;18.13;;;;;;;17.24;nan;-14619.56;5033539;28;20186;-71
2023/05/16 05:43:10;;;;;;;34.78;17.35;;;;;;;17.27;nan;-15265.88;5033106;28;20224;-69
2023/05/16 05:45:36;;;;;;;33.72;16.35;;;;;;;16.82;nan;-16873.22;5033371;28;20310;-69
2023/05/16 05:48:01;;;;;;;34.95;15.25;;;;;;;16.85;nan;-17196.25;5033427;28;20195;-69
2023/05/16 05:50:27;;;;;;;35.85;17.42;;;;;;;16.99;nan;-16875.91;5033108;28;20190;-71
2023/05/16 05:52:54;;;;;;;34.95;16.08;;;;;;;16.91;nan;-16874.66;5032625;28;20908;-70
2023/05/16 05:55:19;;;;;;;33.60;15.65;;;;;;;16.96;nan;-15907.44;5032827;28;20164;-70
2023/05/16 05:57:45;;;;;;;33.53;15.45;;;;;;;17.07;nan;-14940.41;5031998;28;20182;-72
2023/05/16 06:00:11;;;;;;;34.95;15.23;;;;;;;17.06;nan;-13971.53;5032833;28;20245;-72
2023/05/16 06:02:36;;;;;;;39.33;15.00;;;;;;;17.01;nan;-14616.84;5031620;28;20705;-71
2023/05/16 06:05:02;;;;;;;33.15;14.90;;;;;;;16.43;nan;-16867.19;5033358;28;20206;-70
2023/05/16 06:07:27;;;;;;;33.10;15.45;;;;;;;16.34;nan;-17510.41;5031896;28;20274;-69
2023/05/16 06:09:53;;;;;;;29.42;15.35;;;;;;;16.60;nan;-18159.38;5033412;28;20688;-70
2023/05/16 06:12:18;;;;;;;32.03;14.95;;;;;;;16.37;nan;-18477.41;5032301;28;20180;-71
2023/05/16 06:14:43;;;;;;;29.95;14.13;;;;;;;16.34;nan;-18799.09;5033100;28;20179;-70
2023/05/16 06:17:09;;;;;;;28.27;13.40;;;;;;;16.67;nan;-15903.31;5032734;28;20245;-69
2023/05/16 06:19:34;;;;;;;25.77;12.57;;;;;;;16.43;nan;-12996.47;5033292;28;20286;-71
2023/05/16 06:22:00;;;;;;;28.80;11.82;;;;;;;16.63;nan;-12352.59;5032972;28;20202;-71
2023/05/16 06:24:25;;;;;;;19.92;11.77;;;;;;;16.79;nan;-12030.94;5037739;28;20183;-71
2023/05/16 06:26:51;;;;;;;21.83;11.50;;;;;;;16.50;nan;-11059.81;5031166;28;20258;-70
2023/05/16 06:29:16;;;;;;;19.52;10.35;;;;;;;16.31;nan;-11058.63;5032258;28;20211;-69
2023/05/16 06:31:42;;;;;;;19.48;10.05;;;;;;;16.41;nan;-11059.22;5031752;28;20834;-70
2023/05/16 06:34:08;;;;;;;20.63;10.90;;;;;;;16.37;nan;-11704.72;5032901;28;20182;-71
2023/05/16 06:36:33;;;;;;;20.45;10.52;;;;;;;16.60;nan;-12675.19;5031852;28;20210;-70
2023/05/16 06:38:58;;;;;;;19.50;10.77;;;;;;;16.58;nan;-12675.06;5031994;28;20199;-71
2023/05/16 06:41:25;;;;;;;17.23;9.73;;;;;;;16.64;nan;-8798.53;5031120;28;20191;-69
2023/05/16 06:43:51;;;;;;;15.55;8.98;;;;;;;16.65;nan;-10414.56;5031691;28;20227;-70
2023/05/16 06:46:16;;;;;;;16.48;9.23;;;;;;;16.73;nan;-8475.44;5029654;28;20189;-71
2023/05/16 06:48:42;;;;;;;14.93;8.95;;;;;;;16.33;nan;-10412.87;5031794;28;20246;-70
2023/05/16 06:51:07;;;;;;;14.90;8.75;;;;;;;16.41;nan;-12350.69;5031819;28;20185;-69
2023/05/16 06:53:33;;;;;;;14.27;7.75;;;;;;;16.02;nan;-12024.81;5030344;28;20715;-70
2023/05/16 06:55:58;;;;;;;16.90;9.13;;;;;;;16.66;nan;-10091.47;5031406;28;20183;-73
2023/05/16 06:58:24;;;;;;;16.08;8.43;;;;;;;16.97;nan;-7828.94;5031082;28;20183;-72
2023/05/16 07:00:49;;;;;;;15.85;9.43;;;;;;;16.44;nan;-9121.16;5030859;28;20189;-73
2023/05/16 07:03:15;;;;;;;12.95;8.13;;;;;;;16.91;nan;-8152.34;5031864;28;20175;-68
2023/05/16 07:05:40;;;;;;;15.38;8.57;;;;;;;17.03;nan;-7181.78;5030962;28;20677;-69
2023/05/16 07:08:08;;;;;;;15.88;8.57;;;;;;;17.00;nan;-5563.25;5030561;28;20215;-71
2023/05/16 07:10:34;;;;;;;14.35;8.50;;;;;;;16.89;nan;-3296.66;5031152;28;20245;-69
2023/05/16 07:13:00;;;;;;;14.93;7.95;;;;;;;16.83;nan;-5239.97;5031585;28;20217;-71
2023/05/16 07:15:26;;;;;;;12.93;8.13;;;;;;;16.98;nan;-7828.94;5031703;28;20194;-69
2023/05/16 07:17:51;;;;;;;14.35;7.45;;;;;;;17.31;nan;-6210.28;5024380;28;20266;-71
2023/05/16 07:20:16;;;;;;;11.88;7.72;;;;;;;17.15;nan;-5238.97;5027534;28;20198;-70
2023/05/16 07:22:42;;;;;;;14.20;8.15;;;;;;;17.50;nan;-1995.50;5030138;28;20658;-71
2023/05/16 07:25:11;;;;;;;13.60;8.15;;;;;;;17.53;nan;-5237.78;5032451;28;20183;-71
2023/05/16 07:27:40;;;;;;;12.10;7.38;;;;;;;17.75;nan;-3940.03;5034503;28;20175;-70
2023/05/16 07:30:07;;;;;;;12.13;6.85;;;;;;;17.78;nan;604.22;5031914;28;20260;-71
2023/05/16 07:32:33;;;;;;;11.73;6.75;;;;;;;17.69;nan;-370.97;5031362;28;20259;-72
2023/05/16 07:34:59;;;;;;;12.18;7.22;;;;;;;18.47;nan;6145.47;5031916;28;20199;-71
2023/05/16 07:37:24;;;;;;;11.95;7.60;;;;;;;18.74;nan;10063.88;5030685;28;20657;-72
2023/05/16 07:39:50;;;;;;;13.98;7.32;;;;;;;19.06;nan;11705.38;5031016;28;20187;-71
2023/05/16 07:42:15;;;;;;;12.23;7.15;;;;;;;19.20;nan;13997.06;5030560;28;20662;-69
2023/05/16 07:44:40;;;;;;;11.88;7.25;;;;;;;19.18;nan;19230.19;5029905;28;20270;-70
2023/05/16 07:47:06;;;;;;;15.02;7.90;;;;;;;19.19;nan;25785.06;5030366;28;20183;-71
2023/05/16 07:49:31;;;;;;;15.38;7.68;;;;;;;19.02;nan;26759.88;5030321;28;20202;-69
2023/05/16 07:51:57;;;;;;;14.20;7.93;;;;;;;18.64;nan;18553.09;5030862;28;20235;-70
2023/05/16 07:54:22;;;;;;;14.13;7.65;;;;;;;18.77;nan;19867.03;5034144;28;20187;-72
2023/05/16 07:56:48;;;;;;;15.43;8.30;;;;;;;18.74;nan;19865.72;5035710;28;20642;-69
2023/05/16 07:59:13;;;;;;;12.82;7.95;;;;;;;18.74;nan;20193.16;5036245;28;20712;-70
2023/05/16 08:01:39;;;;;;;12.68;7.63;;;;;;;19.01;nan;16932.56;5035688;28;20167;-72
2023/05/16 08:04:04;;;;;;;14.48;8.18;;;;;;;18.27;nan;10702.78;5034176;28;20257;-72
2023/05/16 08:06:30;;;;;;;14.65;8.70;;;;;;;18.60;nan;12996.91;5035622;28;20172;-72
2023/05/16 08:08:55;;;;;;;13.88;7.88;;;;;;;18.74;nan;13654.66;5035339;28;20194;-70
2023/05/16 08:11:21;;;;;;;13.57;8.45;;;;;;;18.24;nan;12006.50;5035636;28;20182;-71
2023/05/16 08:13:47;;;;;;;15.02;8.68;;;;;;;18.28;nan;4839.22;5035612;28;20182;-71
2023/05/16 08:16:13;;;;;;;12.55;7.65;;;;;;;18.14;nan;7766.50;5034265;28;20214;-70
2023/05/16 08:18:38;;;;;;;14.25;8.02;;;;;;;18.63;nan;10713.34;5035797;28;20257;-72
2023/05/16 08:21:04;;;;;;;15.63;8.25;;;;;;;18.43;nan;12338.75;5035317;28;20182;-73
2023/05/16 08:23:29;;;;;;;14.20;8.45;;;;;;;18.56;nan;11363.63;5033647;28;20330;-71
2023/05/16 08:25:54;;;;;;;16.90;9.05;;;;;;;18.49;nan;10056.94;5035351;28;20173;-72
2023/05/16 08:28:20;;;;;;;14.32;8.93;;;;;;;18.13;nan;8743.34;5038956;28;20206;-70
2023/05/16 08:30:46;;;;;;;14.13;8.13;;;;;;;18.33;nan;8748.69;5035504;28;20568;-72
2023/05/16 08:33:12;;;;;;;17.15;8.27;;;;;;;18.95;nan;8112.38;5035401;28;20626;-70
2023/05/16 08:35:41;;;;;;;14.00;7.80;;;;;;;19.13;nan;18900.69;5035783;28;20254;-71
2023/05/16 08:38:07;;;;;;;14.52;8.07;;;;;;;19.39;nan;17929.56;5034846;28;20634;-72
2023/05/16 08:40:32;;;;;;;15.32;8.27;;;;;;;19.43;nan;20878.97;5035500;28;20205;-71
2023/05/16 08:42:58;;;;;;;13.85;8.50;;;;;;;19.66;nan;25153.47;5034879;28;20247;-70
2023/05/16 08:45:24;;;;;;;13.60;7.85;;;;;;;19.39;nan;18256.94;5035127;28;20516;-69
2023/05/16 08:47:54;;;;;;;12.63;7.72;;;;;;;18.94;nan;14641.59;5035029;28;20172;-71
2023/05/16 08:50:20;;;;;;;12.70;7.68;;;;;;;19.32;nan;15963.47;5034624;28;20175;-72
2023/05/16 08:52:50;;;;;;;12.68;7.97;;;;;;;19.85;nan;16965.81;5034279;28;20649;-70
2023/05/16 08:55:18;;;;;;;13.52;7.85;;;;;;;19.93;nan;19262.47;5031921;28;20673;-71
2023/05/16 08:57:44;;;;;;;14.80;7.63;;;;;;;20.24;nan;20916.06;5032847;28;20631;-70
2023/05/16 09:00:11;;;;;;;13.82;8.23;;;;;;;20.55;nan;25200.19;5034171;28;20185;-71
2023/05/16 09:02:45;;;;;;;11.93;8.05;;;;;;;20.31;nan;26173.56;5033600;28;20179;-71
2023/05/16 09:05:13;;;;;;;12.52;8.13;;;;;;;20.60;nan;28821.03;5033888;28;20163;-71
2023/05/16 09:07:39;;;;;;;16.63;8.25;;;;;;;20.09;nan;31093.34;5033937;28;20661;-72
2023/05/16 09:10:08;;;;;;;16.10;8.10;;;;;;;19.67;nan;33040.72;5033966;28;20295;-74
2023/05/16 09:12:34;;;;;;;13.40;7.70;;;;;;;20.53;nan;29475.06;5032299;28;20194;-70
2023/05/16 09:15:04;;;;;;;11.88;7.95;;;;;;;20.22;nan;27154.63;5033729;28;20182;-73
2023/05/16 09:17:41;;;;;;;11.50;7.68;;;;;;;20.52;nan;28158.31;5032817;28;20557;-69
2023/05/16 09:20:11;;;;;;;11.60;7.13;;;;;;;20.49;nan;32435.41;5032203;28;20178;-73
2023/05/16 09:22:37;;;;;;;10.57;7.15;;;;;;;19.84;nan;22537.50;5033986;28;20237;-72
2023/05/16 09:25:03;;;;;;;13.23;7.30;;;;;;;19.57;nan;20557.69;5032179;28;20179;-72
2023/05/16 09:27:30;;;;;;;12.70;7.43;;;;;;;19.49;nan;12698.94;5033737;28;20191;-72
2023/05/16 09:29:57;;;;;;;16.92;7.97;;;;;;;19.45;nan;9430.47;5036454;28;20210;-71
2023/05/16 09:32:23;;;;;;;11.23;7.72;;;;;;;19.22;nan;12690.31;5035478;28;20565;-70
2023/05/16 09:34:50;;;;;;;12.15;7.30;;;;;;;19.35;nan;11387.50;5034091;28;20175;-72
2023/05/16 09:37:16;;;;;;;11.98;7.25;;;;;;;19.23;nan;13671.25;5033604;28;20171;-71
2023/05/16 09:39:47;;;;;;;13.10;8.00;;;;;;;19.24;nan;11384.16;5032415;28;20646;-73
2023/05/16 09:42:14;;;;;;;11.93;7.50;;;;;;;18.42;nan;3539.97;5033895;28;20553;-71
2023/05/16 09:44:41;;;;;;;13.70;7.97;;;;;;;18.77;nan;2243.84;5033728;28;20650;-72
2023/05/16 09:47:06;;;;;;;12.10;7.88;;;;;;;18.82;nan;2570.06;5032941;28;20533;-69
2023/05/16 09:49:32;;;;;;;12.15;7.57;;;;;;;19.03;nan;4202.09;5033619;28;20199;-70
2023/05/16 09:52:01;;;;;;;12.65;7.35;;;;;;;19.46;nan;6493.16;5033482;28;20176;-71
2023/05/16 09:54:34;;;;;;;13.02;7.68;;;;;;;19.72;nan;5519.78;5033362;28;20241;-71
2023/05/16 09:57:00;;;;;;;11.93;7.72;;;;;;;19.74;nan;10418.66;5033243;28;20180;-70
2023/05/16 09:59:29;;;;;;;13.25;7.53;;;;;;;19.81;nan;12382.31;5033198;28;20618;-72
2023/05/16 10:01:58;;;;;;;11.32;7.63;;;;;;;19.99;nan;10752.69;5032053;28;20171;-72
2023/05/16 10:04:23;;;;;;;11.38;7.93;;;;;;;20.12;nan;12065.09;5033923;28;20221;-72
2023/05/16 10:06:53;;;;;;;13.20;7.15;;;;;;;20.52;nan;16664.13;5033013;28;20163;-72
2023/05/16 10:09:21;;;;;;;10.27;7.15;;;;;;;20.39;nan;13710.44;5033333;28;20192;-72
2023/05/16 10:11:48;;;;;;;11.45;7.13;;;;;;;20.73;nan;16344.38;5033055;28;20176;-72
2023/05/16 10:14:16;;;;;;;14.85;7.82;;;;;;;21.21;nan;21288.53;5032499;28;20559;-70
2023/05/16 10:16:45;;;;;;;13.23;7.53;;;;;;;21.04;nan;22595.59;5033303;28;20317;-70
2023/05/16 10:19:11;;;;;;;11.45;7.57;;;;;;;21.54;nan;28546.19;5031889;28;20186;-71
2023/05/16 10:21:38;;;;;;;12.25;7.78;;;;;;;21.22;nan;30175.03;5032819;28;20175;-72
2023/05/16 10:24:06;;;;;;;12.27;8.20;;;;;;;21.34;nan;37180.97;5032774;28;20205;-73
2023/05/16 10:26:32;;;;;;;13.18;7.93;;;;;;;21.51;nan;41420.97;5031437;28;20222;-70
2023/05/16 10:29:01;;;;;;;14.57;8.27;;;;;;;21.36;nan;32491.41;5032967;28;20213;-73
2023/05/16 10:31:28;;;;;;;12.55;8.18;;;;;;;20.85;nan;33118.06;5032537;28;20167;-74
2023/05/16 10:33:54;;;;;;;11.70;7.10;;;;;;;20.82;nan;27187.88;5036777;28;20202;-71
2023/05/16 10:36:20;;;;;;;12.82;7.88;;;;;;;20.99;nan;32138.00;5032894;28;20262;-71
2023/05/16 10:38:46;;;;;;;12.77;7.82;;;;;;;21.06;nan;29836.06;5032886;28;20682;-71
2023/05/16 10:41:13;;;;;;;11.48;8.07;;;;;;;20.78;nan;24883.59;5032658;28;20171;-73
2023/05/16 10:43:38;;;;;;;12.88;8.20;;;;;;;21.24;nan;31164.72;5033196;28;20282;-71
2023/05/16 10:46:08;;;;;;;14.93;8.63;;;;;;;20.85;nan;28506.31;5032731;28;20206;-74
2023/05/16 10:48:38;;;;;;;14.57;8.90;;;;;;;21.18;nan;22273.44;5032844;28;20199;-71
2023/05/16 10:51:22;;;;;;;14.85;8.77;;;;;;;21.41;nan;27550.25;5031221;28;20179;-72
2023/05/16 10:53:54;;;;;;;14.40;9.13;;;;;;;21.51;nan;30522.19;5032231;28;20175;-72
2023/05/16 10:56:24;;;;;;;15.73;8.43;;;;;;;21.86;nan;34174.94;5032461;28;20224;-70
2023/05/16 10:58:52;;;;;;;15.50;8.70;;;;;;;22.19;nan;39775.09;5031722;28;20237;-70
2023/05/16 11:01:23;;;;;;;15.02;8.93;;;;;;;21.71;nan;39844.81;5032837;28;20202;-72
2023/05/16 11:04:00;;;;;;;14.90;8.98;;;;;;;21.79;nan;33509.78;5032694;28;20175;-70
2023/05/16 11:06:41;;;;;;;17.20;9.40;;;;;;;21.33;nan;34799.03;5033079;28;20175;-71
2023/05/16 11:09:16;;;;;;;15.20;8.38;;;;;;;21.34;nan;26887.66;5032547;28;20756;-73
2023/05/16 11:11:45;;;;;;;15.52;9.82;;;;;;;21.34;nan;30841.34;5032868;28;20159;-71
2023/05/16 11:14:18;;;;;;;17.02;9.85;;;;;;;20.96;nan;25221.97;5032533;28;20194;-70
2023/05/16 11:16:51;;;;;;;13.35;8.85;;;;;;;21.26;nan;22934.69;5028773;28;20183;-70
2023/05/16 11:19:57;;;;;;;13.75;8.65;;;;;;;21.70;nan;29544.31;5031185;28;20183;-72
2023/05/16 11:22:28;;;;;;;16.17;9.50;;;;;;;21.46;nan;33817.75;5032066;28;20207;-71
2023/05/16 11:24:58;;;;;;;14.55;9.02;;;;;;;21.55;nan;32833.72;5031431;28;20237;-71
2023/05/16 11:27:46;;;;;;;17.05;9.40;;;;;;;21.44;nan;27881.66;5031710;28;20178;-70
2023/05/16 11:30:14;;;;;;;14.88;9.00;;;;;;;21.58;nan;31186.44;5031842;28;20193;-71
2023/05/16 11:32:42;;;;;;;15.23;8.73;;;;;;;22.06;nan;33857.81;5031990;28;20182;-72